ADDS METAR Data INFO
IDs: Format: Raw Decoded Include TAF

Data at: 0430 UTC 24 Apr 2018

K6R3 240415Z AUTO 00000KT 7SM CLR 14/12 A3005 RMK AO2 T01360123
K6R3 240355Z AUTO 00000KT 7SM CLR 14/13 A3005 RMK AO2 T01390125
K6R3 240335Z AUTO 00000KT 10SM CLR 14/13 A3005 RMK AO2 T01400126
K6R3 240315Z AUTO 00000KT 10SM CLR 14/13 A3005 RMK AO2 T01440129
K6R3 240255Z AUTO 00000KT 10SM CLR 15/13 A3004 RMK AO2 T01460131
K6R3 240235Z AUTO 00000KT 7SM CLR 15/13 A3003 RMK AO2 T01500132
K6R3 240215Z AUTO 00000KT 7SM CLR 15/13 A3002 RMK AO2 T01530133
K6R3 240155Z AUTO 00000KT 10SM CLR 16/14 A3002 RMK AO2 T01580135
K6R3 240135Z AUTO 00000KT 10SM CLR 16/14 A3001 RMK AO2 T01620135
K6R3 240115Z AUTO 00000KT 10SM CLR 17/14 A3000 RMK AO2 T01710136
K6R3 240055Z AUTO 00000KT 5SM HZ CLR 20/12 A2999 RMK AO2 T01950117
K6R3 240035Z AUTO 00000KT 10SM CLR 22/12 A2998 RMK AO2 T02170115
K6R3 240015Z AUTO 33005KT 10SM CLR 24/09 A2998 RMK AO2 T02360089
K6R3 232355Z AUTO 33007KT 10SM CLR 24/08 A2997 RMK AO2 T02430081 10260 20235
K6R3 232335Z AUTO 34008KT 10SM CLR 25/08 A2997 RMK AO2 T02480075
K6R3 232315Z AUTO 32005KT 7SM CLR 25/08 A2997 RMK AO2 T02510079
K6R3 232255Z AUTO 32009KT 10SM CLR 25/08 A2997 RMK AO2 T02540080
K6R3 232235Z AUTO 33008KT 290V350 10SM CLR 26/08 A2997 RMK AO2 T02580078
K6R3 232215Z AUTO 34011G15KT 10SM CLR 26/08 A2997 RMK AO2 T02570079
K6R3 232155Z AUTO 32009KT 10SM CLR 26/08 A2998 RMK AO2 T02560081
K6R3 232135Z AUTO 33004G09KT 7SM CLR 26/08 A2998 RMK AO2 T02560082
K6R3 232115Z AUTO 35008G16KT 310V020 10SM CLR 26/07 A2999 RMK AO2 T02570073
K6R3 232055Z AUTO 30009KT 10SM CLR 26/07 A3000 RMK AO2 T02590074
K6R3 232035Z AUTO 32008G16KT 10SM CLR 26/07 A3000 RMK AO2 T02550073
K6R3 232015Z AUTO 30009G15KT 7SM CLR 25/07 A3001 RMK AO2 T02540068
K6R3 231955Z AUTO 29006KT 7SM CLR 25/08 A3002 RMK AO2 T02540079
K6R3 231935Z AUTO 33009G17KT 7SM CLR 25/07 A3003 RMK AO2 T02510068
K6R3 231915Z AUTO 33010G16KT 7SM CLR 25/07 A3003 RMK AO2 T02450066
K6R3 231855Z AUTO 32010G17KT 10SM CLR 25/07 A3004 RMK AO2 T02450068
K6R3 231835Z AUTO 34010G16KT 10SM CLR 24/07 A3005 RMK AO2 T02430066
K6R3 231815Z AUTO 32012G15KT 10SM CLR 24/07 A3005 RMK AO2 T02380069
K6R3 231755Z AUTO 30010KT 7SM CLR 24/07 A3005 RMK AO2 T02350074 10235 20097
K6R3 231735Z AUTO 32010G14KT 7SM CLR 23/08 A3006 RMK AO2 T02310082
K6R3 231715Z AUTO 34011G20KT 7SM CLR 23/07 A3007 RMK AO2 T02290070
K6R3 231655Z AUTO 34010G14KT 10SM CLR 23/07 A3007 RMK AO2 T02270070
K6R3 231635Z AUTO 33011G18KT 7SM CLR 22/07 A3007 RMK AO2 T02210069
K6R3 231615Z AUTO 31009G14KT 10SM CLR 22/07 A3008 RMK AO2 T02150074
K6R3 231555Z AUTO 35008KT 10SM CLR 21/08 A3008 RMK AO2 T02110078
K6R3 231535Z AUTO 31005KT 10SM CLR 21/09 A3009 RMK AO2 T02050092
K6R3 231515Z AUTO 33006KT 7SM CLR 19/08 A3009 RMK AO2 T01940082
K6R3 231455Z AUTO 33005KT 10SM CLR 19/09 A3008 RMK AO2 T01880087
K6R3 231435Z AUTO 31005KT 10SM CLR 18/09 A3008 RMK AO2 T01790093
K6R3 231415Z AUTO 34006KT 7SM CLR 17/09 A3009 RMK AO2 T01680090
K6R3 231355Z AUTO 33007KT 7SM CLR 16/09 A3009 RMK AO2 T01560091
K6R3 231335Z AUTO 32004KT 7SM CLR 15/09 A3009 RMK AO2 T01470094
K6R3 231315Z AUTO 31004KT 10SM CLR 13/10 A3009 RMK AO2 T01290100
K6R3 231255Z AUTO 28003KT 10SM CLR 12/10 A3008 RMK AO2 T01150097
K6R3 231235Z AUTO 00000KT 10SM CLR 11/09 A3007 RMK AO2 T01050091
K6R3 231215Z AUTO 00000KT 10SM CLR 10/09 A3007 RMK AO2 T01000088
K6R3 231155Z AUTO 00000KT 7SM CLR 10/09 A3007 RMK AO2 T00970087 10109 20085
K6R3 231135Z AUTO 30004KT 10SM CLR 10/09 A3005 RMK AO2 T00950090
K6R3 231120Z AUTO 00000KT 10SM CLR 09/08 A3005 RMK AO2 T00870078
K6R3 231055Z AUTO 00000KT 10SM CLR 09/08 A3003 RMK AO2 T00870077
K6R3 231035Z AUTO 00000KT 7SM CLR 09/08 A3002 RMK AO2 T00900080
K6R3 231015Z AUTO 00000KT 7SM CLR 09/08 A3002 RMK AO2 T00900080
K6R3 230955Z AUTO 00000KT 7SM CLR 09/08 A3002 RMK AO2 T00910081
K6R3 230935Z AUTO 00000KT 10SM CLR 09/08 A3003 RMK AO2 T00920083
K6R3 230915Z AUTO 00000KT 7SM CLR 09/08 A3002 RMK AO2 T00940084
K6R3 230855Z AUTO 00000KT 10SM CLR 09/08 A3002 RMK AO2 T00920082
K6R3 230835Z AUTO 00000KT 7SM CLR 10/09 A3002 RMK AO2 T00950085
K6R3 230815Z AUTO 00000KT 7SM CLR 10/09 A3002 RMK AO2 T00950085
K6R3 230755Z AUTO 00000KT 7SM CLR 10/09 A3003 RMK AO2 T00970087
K6R3 230735Z AUTO 00000KT 7SM CLR 10/09 A3003 RMK AO2 T00980087
K6R3 230715Z AUTO 00000KT 7SM CLR 10/09 A3003 RMK AO2 T01000090
K6R3 230655Z AUTO 00000KT 10SM CLR 10/09 A3003 RMK AO2 T01010090
K6R3 230635Z AUTO 00000KT 7SM CLR 11/09 A3003 RMK AO2 T01050093
K6R3 230615Z AUTO 00000KT 7SM CLR 11/10 A3004 RMK AO2 T01060095
K6R3 230550Z AUTO 00000KT 10SM CLR 11/10 A3004 RMK AO2 T01120100 10212 20112 402230112
K6R3 230535Z AUTO 00000KT 10SM CLR 12/10 A3004 RMK AO2 T01150100
K6R3 230510Z AUTO 00000KT 7SM CLR 12/10 A3004 RMK AO2 T01160104
K6R3 230455Z AUTO 00000KT 10SM CLR 12/10 A3004 RMK AO2 T01170102
K6R3 230435Z AUTO 00000KT 7SM CLR 13/11 A3005 RMK AO2 T01250111
K6R3 230410Z AUTO 00000KT 7SM CLR 12/11 A3005 RMK AO2 T01210110
K6R3 230355Z AUTO 00000KT 7SM CLR 12/11 A3004 RMK AO2 T01210110
K6R3 230340Z AUTO 00000KT 10SM CLR 12/11 A3005 RMK AO2 T01220110
K6R3 230315Z AUTO 00000KT 10SM CLR 13/11 A3004 RMK AO2 T01250112
K6R3 230255Z AUTO 00000KT 10SM CLR 13/11 A3004 RMK AO2 T01270114
K6R3 230235Z AUTO 00000KT 7SM CLR 13/12 A3003 RMK AO2 T01310117
K6R3 230215Z AUTO 00000KT 10SM CLR 14/12 A3002 RMK AO2 T01350118
K6R3 230150Z AUTO 00000KT 10SM CLR 14/12 A3002 RMK AO2 T01390120
K6R3 230135Z AUTO 00000KT 7SM CLR 14/12 A3001 RMK AO2 T01430123
K6R3 230115Z AUTO 00000KT 10SM CLR 15/13 A3001 RMK AO2 T01490126
K6R3 230055Z AUTO 00000KT 7SM CLR 17/11 A3000 RMK AO2 T01700112
K6R3 230035Z AUTO 33004KT 7SM CLR 20/09 A2999 RMK AO2 T01970090
K6R3 230015Z AUTO 33006KT 7SM CLR 21/08 A2998 RMK AO2 T02060082
K6R3 222355Z AUTO 32004KT 5SM HZ CLR 21/09 A2998 RMK AO2 T02120089 10223 20153
K6R3 222335Z AUTO 33006KT 7SM CLR 22/08 A2998 RMK AO2 T02160080
K6R3 222315Z AUTO 32007KT 7SM CLR 22/09 A2998 RMK AO2 T02190085
K6R3 222255Z AUTO 34008KT 7SM SCT042 22/08 A2998 RMK AO2 T02200081
K6R3 222235Z AUTO 32009KT 7SM CLR 22/08 A2999 RMK AO2 T02180078
K6R3 222215Z AUTO 32009KT 7SM CLR 22/08 A2999 RMK AO2 T02170082
K6R3 222155Z AUTO 33007KT 7SM CLR 22/09 A2999 RMK AO2 T02190085
K6R3 222135Z AUTO 35006KT 7SM SCT040 22/09 A2999 RMK AO2 T02180087
K6R3 222115Z AUTO 32005KT 7SM SCT036 22/09 A2999 RMK AO2 T02180093
K6R3 222055Z AUTO 32008KT 7SM SCT034 21/09 A3000 RMK AO2 T02130094
K6R3 222035Z AUTO 31005KT 5SM HZ SCT032 21/10 A3001 RMK AO2 T02100101
K6R3 222015Z AUTO 34009KT 7SM BKN032 21/10 A3002 RMK AO2 T02050098
K6R3 221955Z AUTO 32009G15KT 7SM BKN028 20/10 A3003 RMK AO2 T02010097
K6R3 221935Z AUTO 35005KT 7SM BKN026 19/10 A3003 RMK AO2 T01890098
K6R3 221915Z AUTO 32010KT 7SM SCT024 18/09 A3005 RMK AO2 T01810094
K6R3 221855Z AUTO 32009KT 290V350 5SM HZ OVC022 18/10 A3005 RMK AO2 T01790095
K6R3 221835Z AUTO 34010KT 7SM OVC020 16/09 A3006 RMK AO2 T01620093
K6R3 221815Z AUTO 32010G16KT 7SM OVC018 16/09 A3006 RMK AO2 T01550094
K6R3 221755Z AUTO 35011G15KT 7SM OVC016 15/10 A3007 RMK AO2 T01520096 10162 20139
K6R3 221735Z AUTO 33009G15KT 10SM OVC014 15/10 A3007 RMK AO2 T01470099
K6R3 221715Z AUTO 31010G14KT 7SM OVC014 15/10 A3007 RMK AO2 T01450098
K6R3 221655Z AUTO 32010G15KT 4SM HZ OVC014 15/10 A3007 RMK AO2 T01460098
K6R3 221635Z AUTO 33012G17KT 5SM HZ OVC014 14/10 A3007 RMK AO2 T01410097